createdAt,value
2019-06-01T00:01:27.559Z,99.90
2019-06-01T00:04:29.838Z,99.90
2019-06-01T00:07:32.124Z,99.90
2019-06-01T00:10:34.335Z,99.90
2019-06-01T00:13:36.560Z,99.90
2019-06-01T00:16:39.951Z,99.90
2019-06-01T00:19:41.991Z,99.90
2019-06-01T00:22:43.351Z,99.90
2019-06-01T00:25:46.639Z,99.90
2019-06-01T00:28:47.937Z,99.90
2019-06-01T00:31:50.045Z,99.90
2019-06-01T00:34:52.291Z,99.90
2019-06-01T00:37:54.502Z,99.90
2019-06-01T00:40:56.768Z,99.90
2019-06-01T00:43:59.002Z,99.90
2019-06-01T00:47:01.241Z,99.90
2019-06-01T00:50:03.717Z,99.90
2019-06-01T00:53:06.029Z,99.90
2019-06-01T00:56:08.297Z,99.90
2019-06-01T00:59:10.578Z,99.90
2019-06-01T01:02:12.833Z,99.90
2019-06-01T01:05:16.106Z,99.90
2019-06-01T01:08:18.347Z,99.90
2019-06-01T01:11:20.585Z,99.90
2019-06-01T01:14:22.807Z,99.90
2019-06-01T01:17:25.107Z,99.90
2019-06-01T01:20:27.388Z,99.90
2019-06-01T01:23:29.685Z,99.90
2019-06-01T01:26:31.925Z,99.90
2019-06-01T01:29:34.176Z,99.90
2019-06-01T01:32:36.440Z,99.90
2019-06-01T01:35:38.768Z,99.90
2019-06-01T01:38:41.019Z,99.90
2019-06-01T01:41:43.236Z,99.90
2019-06-01T01:44:45.484Z,99.90
2019-06-01T01:47:49.375Z,99.90
2019-06-01T01:50:50.274Z,99.90
2019-06-01T01:53:52.987Z,99.90
2019-06-01T01:56:54.508Z,99.90
2019-06-01T01:59:57.404Z,99.90
2019-06-01T02:03:00.098Z,99.90
2019-06-01T02:06:01.232Z,99.90
2019-06-01T02:09:06.532Z,99.90
2019-06-01T02:12:08.781Z,99.90
2019-06-01T02:15:11.059Z,99.90
2019-06-01T02:18:13.358Z,99.90
2019-06-01T02:21:15.590Z,99.90
2019-06-01T02:24:17.851Z,99.90
2019-06-01T02:27:20.107Z,99.90
2019-06-01T02:30:22.381Z,99.90
2019-06-01T02:33:24.633Z,99.90
2019-06-01T02:36:26.904Z,99.90
2019-06-01T02:39:29.210Z,99.90
2019-06-01T02:42:31.520Z,99.90
2019-06-01T02:45:33.768Z,99.90
2019-06-01T02:48:36.008Z,99.90
2019-06-01T02:51:38.231Z,99.90
2019-06-01T02:54:40.488Z,99.90
2019-06-01T02:57:42.780Z,99.90
2019-06-01T03:01:07.912Z,99.90
2019-06-01T03:04:10.247Z,99.90
2019-06-01T03:07:12.581Z,99.90
2019-06-01T03:10:14.892Z,99.90
2019-06-01T03:13:17.173Z,99.90
2019-06-01T03:16:19.519Z,99.90
2019-06-01T03:19:22.981Z,99.90
2019-06-01T03:22:25.234Z,99.90
2019-06-01T03:25:27.899Z,99.90
2019-06-01T03:28:30.169Z,99.90
2019-06-01T03:31:32.472Z,99.90
2019-06-01T03:34:34.718Z,99.90
2019-06-01T03:37:36.975Z,99.90
2019-06-01T03:40:39.208Z,99.90
2019-06-01T03:43:41.448Z,99.90
2019-06-01T03:46:43.695Z,99.90
2019-06-01T03:49:45.953Z,99.90
2019-06-01T03:52:48.180Z,99.90
2019-06-01T03:55:50.411Z,99.90
2019-06-01T03:58:52.803Z,99.90
2019-06-01T04:01:54.995Z,99.90
2019-06-01T04:04:57.192Z,99.90
2019-06-01T04:07:59.398Z,99.90
2019-06-01T04:11:01.686Z,99.90
2019-06-01T04:14:05.611Z,99.90
2019-06-01T04:17:08.149Z,99.90
2019-06-01T04:20:10.182Z,99.90
2019-06-01T04:23:12.401Z,99.90
2019-06-01T04:26:13.797Z,99.90
2019-06-01T04:29:16.050Z,99.90
2019-06-01T04:32:18.267Z,99.90
2019-06-01T04:35:20.527Z,99.90
2019-06-01T04:38:22.758Z,99.90
2019-06-01T04:41:24.983Z,99.90
2019-06-01T04:44:27.226Z,99.90
2019-06-01T04:47:29.442Z,99.90
2019-06-01T04:50:31.841Z,99.90
2019-06-01T04:53:34.096Z,99.90
2019-06-01T04:56:36.318Z,99.90
2019-06-01T04:59:38.532Z,99.90
2019-06-01T05:02:40.930Z,99.90
2019-06-01T05:05:43.176Z,99.90
2019-06-01T05:08:45.386Z,99.90
2019-06-01T05:11:47.698Z,99.90
2019-06-01T05:14:49.933Z,99.90
2019-06-01T05:17:52.231Z,99.90
2019-06-01T05:20:54.491Z,99.90
2019-06-01T05:23:56.719Z,99.90
2019-06-01T05:26:58.948Z,99.90
2019-06-01T05:30:01.241Z,99.90
2019-06-01T05:33:03.525Z,99.90
2019-06-01T05:36:05.818Z,99.90
2019-06-01T05:39:08.298Z,99.90
2019-06-01T05:42:10.698Z,99.90
2019-06-01T05:45:13.040Z,99.90
2019-06-01T05:48:20.707Z,99.90
2019-06-01T05:51:18.569Z,99.90
2019-06-01T05:54:19.443Z,98.50
2019-06-01T05:57:23.169Z,98.00
2019-06-01T06:00:35.495Z,95.10
2019-06-01T06:03:40.546Z,93.30
2019-06-01T06:06:39.936Z,92.30
2019-06-01T06:09:42.257Z,91.90
2019-06-01T06:12:44.539Z,90.20
2019-06-01T06:15:46.764Z,90.50
2019-06-01T06:18:49.008Z,87.00
2019-06-01T06:21:51.273Z,86.10
2019-06-01T06:24:53.499Z,84.50
2019-06-01T06:27:55.746Z,83.90
2019-06-01T06:30:58.000Z,83.20
2019-06-01T06:34:00.270Z,82.40
2019-06-01T06:37:02.521Z,81.30
2019-06-01T06:40:05.078Z,81.50
2019-06-01T06:43:19.171Z,80.40
2019-06-01T06:46:09.740Z,79.80
2019-06-01T06:49:11.992Z,77.10
2019-06-01T06:52:15.182Z,76.60
2019-06-01T06:55:17.712Z,76.20
2019-06-01T06:58:18.970Z,75.90
2019-06-01T07:01:20.982Z,75.40
2019-06-01T07:04:23.309Z,74.70
2019-06-01T07:07:25.792Z,73.40
2019-06-01T07:10:28.328Z,72.40
2019-06-01T07:13:30.027Z,73.30
2019-06-01T07:16:32.255Z,72.40
2019-06-01T07:19:34.511Z,72.10
2019-06-01T07:22:36.723Z,71.80
2019-06-01T07:25:38.947Z,70.00
2019-06-01T07:28:44.456Z,71.20
2019-06-01T07:31:43.384Z,69.90
2019-06-01T07:34:45.672Z,70.70
2019-06-01T07:37:47.921Z,70.40
2019-06-01T07:40:50.181Z,70.80
2019-06-01T07:43:52.395Z,70.10
2019-06-01T07:46:54.616Z,70.70
2019-06-01T07:49:56.827Z,71.70
2019-06-01T07:52:59.110Z,70.40
2019-06-01T07:56:01.316Z,70.70
2019-06-01T07:59:03.572Z,70.80
2019-06-01T08:02:05.845Z,69.50
2019-06-01T08:05:08.098Z,70.10
2019-06-01T08:08:10.369Z,71.30
2019-06-01T08:11:12.603Z,70.90
2019-06-01T08:14:14.828Z,71.40
2019-06-01T08:17:17.105Z,71.10
2019-06-01T08:20:19.387Z,71.10
2019-06-01T08:23:21.879Z,72.40
2019-06-01T08:26:24.419Z,73.20
2019-06-01T08:29:26.659Z,74.50
2019-06-01T08:32:28.713Z,76.50
2019-06-01T08:35:31.179Z,76.10
2019-06-01T08:38:33.817Z,76.00
2019-06-01T08:41:35.201Z,76.30
2019-06-01T08:44:37.427Z,74.60
2019-06-01T08:47:39.652Z,75.00
2019-06-01T08:50:45.781Z,75.60
2019-06-01T08:53:44.133Z,74.50
2019-06-01T08:56:46.401Z,73.10
2019-06-01T08:59:48.650Z,73.20
2019-06-01T09:02:50.880Z,73.00
2019-06-01T09:05:53.104Z,72.90
2019-06-01T09:08:55.433Z,73.60
2019-06-01T09:11:57.699Z,71.60
2019-06-01T09:14:59.943Z,71.30
2019-06-01T09:18:02.182Z,72.00
2019-06-01T09:21:04.451Z,72.30
2019-06-01T09:24:06.695Z,72.20
2019-06-01T09:27:08.955Z,72.80
2019-06-01T09:30:11.253Z,73.60
2019-06-01T09:33:13.503Z,74.40
2019-06-01T09:36:15.814Z,72.50
2019-06-01T09:39:18.092Z,71.90
2019-06-01T09:42:20.378Z,70.50
2019-06-01T09:45:22.684Z,70.40
2019-06-01T09:48:24.949Z,71.60
2019-06-01T09:51:27.417Z,71.40
2019-06-01T09:54:30.870Z,70.40
2019-06-01T09:57:31.981Z,69.40
2019-06-01T10:00:34.870Z,69.40
2019-06-01T10:03:36.545Z,69.10
2019-06-01T10:06:38.769Z,69.60
2019-06-01T10:09:42.085Z,70.40
2019-06-01T10:12:43.199Z,69.40
2019-06-01T10:15:45.431Z,69.00
2019-06-01T10:18:47.722Z,70.30
2019-06-01T10:21:49.967Z,71.10
2019-06-01T10:24:52.244Z,71.50
2019-06-01T10:27:54.525Z,71.10
2019-06-01T10:30:56.810Z,69.50
2019-06-01T10:33:59.219Z,69.50
2019-06-01T10:37:01.462Z,69.80
2019-06-01T10:40:04.127Z,68.30
2019-06-01T10:43:06.411Z,68.60
2019-06-01T10:46:08.636Z,69.10
2019-06-01T10:49:10.883Z,69.90
2019-06-01T10:52:13.109Z,70.40
2019-06-01T10:55:15.340Z,70.60
2019-06-01T10:58:17.547Z,70.80
2019-06-01T11:01:19.807Z,72.00
2019-06-01T11:04:22.071Z,71.90
2019-06-01T11:07:24.324Z,72.10
2019-06-01T11:10:26.634Z,72.50
2019-06-01T11:13:28.908Z,73.10
2019-06-01T11:16:31.112Z,71.20
2019-06-01T11:19:33.328Z,71.40
2019-06-01T11:22:35.704Z,68.80
2019-06-01T11:25:37.851Z,70.00
2019-06-01T11:28:40.185Z,70.30
2019-06-01T11:31:42.392Z,70.30
2019-06-01T11:34:44.667Z,70.80
2019-06-01T11:37:46.911Z,71.70
2019-06-01T11:42:13.749Z,72.20
2019-06-01T11:45:16.089Z,72.40
2019-06-01T11:48:18.297Z,71.90
2019-06-01T11:51:20.565Z,71.70
2019-06-01T11:54:22.767Z,72.40
2019-06-01T11:57:25.003Z,73.00
2019-06-01T12:00:27.310Z,72.50
2019-06-01T12:03:29.567Z,73.00
2019-06-01T12:06:31.811Z,72.20
2019-06-01T12:09:34.063Z,72.50
2019-06-01T12:12:36.277Z,71.30
2019-06-01T12:15:38.552Z,69.50
2019-06-01T12:18:40.795Z,69.80
2019-06-01T12:21:43.089Z,70.70
2019-06-01T12:24:45.241Z,71.70
2019-06-01T12:27:48.323Z,71.20
2019-06-01T12:30:49.811Z,71.20
2019-06-01T12:33:52.089Z,70.80
2019-06-01T12:36:54.337Z,70.70
2019-06-01T12:39:56.564Z,69.40
2019-06-01T12:42:58.800Z,68.60
2019-06-01T12:46:07.121Z,68.20
2019-06-01T12:49:03.326Z,68.20
2019-06-01T12:52:05.608Z,69.90
2019-06-01T12:55:07.917Z,69.20
2019-06-01T12:58:10.184Z,70.10
2019-06-01T13:01:12.481Z,69.70
2019-06-01T13:04:14.739Z,69.40
2019-06-01T13:07:17.008Z,69.70
2019-06-01T13:10:19.359Z,70.00
2019-06-01T13:13:21.575Z,70.40
2019-06-01T13:16:23.857Z,71.10
2019-06-01T13:19:26.082Z,70.30
2019-06-01T13:22:28.316Z,71.20
2019-06-01T13:25:30.533Z,70.70
2019-06-01T13:28:38.156Z,70.80
2019-06-01T13:31:35.021Z,70.90
2019-06-01T13:34:37.259Z,71.30
2019-06-01T13:37:39.478Z,70.80
2019-06-01T13:40:42.816Z,70.40
2019-06-01T13:43:45.189Z,71.50
2019-06-01T13:46:47.200Z,71.60
2019-06-01T13:49:50.025Z,71.00
2019-06-01T13:52:52.062Z,71.90
2019-06-01T13:55:53.076Z,72.30
2019-06-01T13:58:55.344Z,72.40
2019-06-01T14:01:57.610Z,72.80
2019-06-01T14:04:59.904Z,72.10
2019-06-01T14:08:02.154Z,72.20
2019-06-01T14:11:04.399Z,72.90
2019-06-01T14:14:06.688Z,72.50
2019-06-01T14:17:08.939Z,70.80
2019-06-01T14:20:11.240Z,70.80
2019-06-01T14:23:13.471Z,71.50
2019-06-01T14:26:15.777Z,71.50
2019-06-01T14:29:18.030Z,71.30
2019-06-01T14:32:20.249Z,70.40
2019-06-01T14:35:22.512Z,70.80
2019-06-01T14:38:24.782Z,71.40
2019-06-01T14:41:27.035Z,71.40
2019-06-01T14:44:29.269Z,71.20
2019-06-01T14:47:31.522Z,70.70
2019-06-01T14:50:33.793Z,70.30
2019-06-01T14:53:36.012Z,70.90
2019-06-01T14:56:38.266Z,71.10
2019-06-01T14:59:40.487Z,71.10
2019-06-01T15:02:42.730Z,70.80
2019-06-01T15:05:45.019Z,70.20
2019-06-01T15:09:08.737Z,70.30
2019-06-01T15:11:50.602Z,71.10
2019-06-01T15:14:52.922Z,71.30
2019-06-01T15:17:55.427Z,71.70
2019-06-01T15:20:56.380Z,71.10
2019-06-01T15:23:58.794Z,72.30
2019-06-01T15:27:00.951Z,71.70
2019-06-01T15:30:03.498Z,71.00
2019-06-01T15:33:05.759Z,71.10
2019-06-01T15:36:07.991Z,71.40
2019-06-01T15:39:24.147Z,70.60
2019-06-01T15:42:12.511Z,71.60
2019-06-01T15:45:15.186Z,71.60
2019-06-01T15:48:17.473Z,72.00
2019-06-01T15:51:19.695Z,71.60
2019-06-01T15:54:21.951Z,71.50
2019-06-01T15:57:24.213Z,70.90
2019-06-01T16:00:26.484Z,71.40
2019-06-01T16:03:28.731Z,71.10
2019-06-01T16:06:30.968Z,72.00
2019-06-01T16:09:42.647Z,72.50
2019-06-01T16:12:35.512Z,71.30
2019-06-01T16:15:37.783Z,71.20
2019-06-01T16:18:40.052Z,70.70
2019-06-01T16:21:42.326Z,70.70
2019-06-01T16:24:44.552Z,70.80
2019-06-01T16:27:46.842Z,71.50
2019-06-01T16:30:49.400Z,70.90
2019-06-01T16:33:51.651Z,71.10
2019-06-01T16:36:54.810Z,71.00
2019-06-01T16:40:02.555Z,70.30
2019-06-01T16:42:59.353Z,71.00
2019-06-01T16:46:02.124Z,69.10
2019-06-01T16:49:03.683Z,70.00
2019-06-01T16:52:05.425Z,68.60
2019-06-01T16:55:07.798Z,69.30
2019-06-01T16:58:10.020Z,70.20
2019-06-01T17:01:12.306Z,70.00
2019-06-01T17:04:14.575Z,68.70
2019-06-01T17:07:16.810Z,69.50
2019-06-01T17:10:26.200Z,70.20
2019-06-01T17:13:21.314Z,69.70
2019-06-01T17:16:23.539Z,70.10
2019-06-01T17:19:25.803Z,69.60
2019-06-01T17:22:28.072Z,69.20
2019-06-01T17:25:30.276Z,68.90
2019-06-01T17:28:32.530Z,69.10
2019-06-01T17:31:34.759Z,68.70
2019-06-01T17:34:37.007Z,68.30
2019-06-01T17:37:39.260Z,67.70
2019-06-01T17:40:43.238Z,67.60
2019-06-01T17:43:43.772Z,67.40
2019-06-01T17:46:53.467Z,66.20
2019-06-01T17:49:48.303Z,66.00
2019-06-01T17:52:50.540Z,66.30
2019-06-01T17:55:52.855Z,66.00
2019-06-01T17:58:55.085Z,65.70
2019-06-01T18:01:57.380Z,65.30
2019-06-01T18:04:59.685Z,65.90
2019-06-01T18:08:01.986Z,65.90
2019-06-01T18:11:04.234Z,66.20
2019-06-01T18:14:06.487Z,65.60
2019-06-01T18:17:08.750Z,65.70
2019-06-01T18:20:11.076Z,65.10
2019-06-01T18:23:13.537Z,65.70
2019-06-01T18:26:15.644Z,65.40
2019-06-01T18:29:17.918Z,65.80
2019-06-01T18:32:20.169Z,66.30
2019-06-01T18:35:22.427Z,66.80
2019-06-01T18:38:24.692Z,66.60
2019-06-01T18:41:26.955Z,67.10
2019-06-01T18:44:29.219Z,67.30
2019-06-01T18:47:32.699Z,67.20
2019-06-01T18:50:33.953Z,67.40
2019-06-01T18:53:36.175Z,67.10
2019-06-01T18:56:38.437Z,67.30
2019-06-01T18:59:40.731Z,67.50
2019-06-01T19:02:42.981Z,67.80
2019-06-01T19:05:45.272Z,68.00
2019-06-01T19:08:47.515Z,68.10
2019-06-01T19:11:49.775Z,68.40
2019-06-01T19:14:52.053Z,68.70
2019-06-01T19:17:54.268Z,68.90
2019-06-01T19:20:56.499Z,69.10
2019-06-01T19:23:58.735Z,69.40
2019-06-01T19:27:00.984Z,70.00
2019-06-01T19:30:03.944Z,70.30
2019-06-01T19:33:07.156Z,70.50
2019-06-01T19:36:09.392Z,70.70
2019-06-01T19:39:11.669Z,71.20
2019-06-01T19:42:13.930Z,71.50
2019-06-01T19:45:27.532Z,71.70
2019-06-01T19:48:18.967Z,72.20
2019-06-01T19:51:20.897Z,72.10
2019-06-01T19:54:23.115Z,72.40
2019-06-01T19:57:25.399Z,72.60
2019-06-01T20:00:27.647Z,72.60
2019-06-01T20:03:29.857Z,72.80
2019-06-01T20:06:32.091Z,73.10
2019-06-01T20:09:34.378Z,73.40
2019-06-01T20:12:36.623Z,73.60
2019-06-01T20:15:38.892Z,74.00
2019-06-01T20:18:41.152Z,74.40
2019-06-01T20:21:43.416Z,74.70
2019-06-01T20:24:45.695Z,75.10
2019-06-01T20:27:50.930Z,75.30
2019-06-01T20:30:53.166Z,75.70
2019-06-01T20:33:56.483Z,76.20
2019-06-01T20:36:57.699Z,77.00
2019-06-01T20:39:59.968Z,77.50
2019-06-01T20:43:02.231Z,77.90
2019-06-01T20:46:04.558Z,78.30
2019-06-01T20:49:06.798Z,78.70
2019-06-01T20:52:09.058Z,79.10
2019-06-01T20:55:11.376Z,79.60
2019-06-01T20:58:13.849Z,80.00
2019-06-01T21:01:15.956Z,80.40
2019-06-01T21:04:18.274Z,80.80
2019-06-01T21:07:20.505Z,81.40
2019-06-01T21:10:24.112Z,81.80
2019-06-01T21:13:25.129Z,82.30
2019-06-01T21:16:27.395Z,82.80
2019-06-01T21:19:29.633Z,83.30
2019-06-01T21:22:31.913Z,83.80
2019-06-01T21:25:34.162Z,84.10
2019-06-01T21:28:36.407Z,84.70
2019-06-01T21:31:38.631Z,85.20
2019-06-01T21:34:40.859Z,85.60
2019-06-01T21:37:43.149Z,86.20
2019-06-01T21:40:45.413Z,87.00
2019-06-01T21:43:47.651Z,87.60
2019-06-01T21:46:50.098Z,88.20
2019-06-01T21:49:52.378Z,89.00
2019-06-01T21:52:54.620Z,89.70
2019-06-01T21:55:56.818Z,90.20
2019-06-01T21:58:59.171Z,90.80
2019-06-01T22:02:01.636Z,91.30
2019-06-01T22:05:04.679Z,91.80
2019-06-01T22:08:07.043Z,92.40
2019-06-01T22:11:09.465Z,93.00
2019-06-01T22:14:11.978Z,93.70
2019-06-01T22:17:14.376Z,94.10
2019-06-01T22:20:17.808Z,94.60
2019-06-01T22:23:19.745Z,95.20
2019-06-01T22:26:22.021Z,95.80
2019-06-01T22:29:24.417Z,96.40
2019-06-01T22:32:29.539Z,96.90
2019-06-01T22:35:28.845Z,97.30
2019-06-01T22:38:31.035Z,97.60
2019-06-01T22:41:33.348Z,98.00
2019-06-01T22:44:35.640Z,98.50
2019-06-01T22:47:38.097Z,99.20
2019-06-01T22:50:40.424Z,99.80
2019-06-01T22:53:42.875Z,99.90
2019-06-01T22:56:45.283Z,99.90
2019-06-01T22:59:47.706Z,99.90
2019-06-01T23:02:50.112Z,99.90
2019-06-01T23:05:52.586Z,99.90
2019-06-01T23:08:55.075Z,99.90
2019-06-01T23:11:57.488Z,99.90
2019-06-01T23:14:59.885Z,99.90
2019-06-01T23:18:02.313Z,99.90
2019-06-01T23:21:04.808Z,99.90
2019-06-01T23:24:07.221Z,99.90
2019-06-01T23:27:09.597Z,99.90
2019-06-01T23:30:12.019Z,99.90
2019-06-01T23:33:14.414Z,99.90
2019-06-01T23:36:16.984Z,99.90
2019-06-01T23:39:19.339Z,99.90
2019-06-01T23:42:22.537Z,99.90
2019-06-01T23:45:24.634Z,99.90
2019-06-01T23:48:27.209Z,99.90
2019-06-01T23:51:29.583Z,99.90
2019-06-01T23:54:32.445Z,99.90
2019-06-01T23:57:34.267Z,99.90
